sensor_id;sensor_type;location;lat;lon;timestamp;P1;durP1;ratioP1;P2;durP2;ratioP2
45762;SDS011;37512;52.408;13.356;2022-08-14T00:01:01;24.75;;;20.60;;
45762;SDS011;37512;52.408;13.356;2022-08-14T00:05:14;23.23;;;19.42;;
45762;SDS011;37512;52.408;13.356;2022-08-14T00:09:18;24.55;;;18.77;;
45762;SDS011;37512;52.408;13.356;2022-08-14T00:13:21;23.15;;;19.65;;
45762;SDS011;37512;52.408;13.356;2022-08-14T00:17:24;24.80;;;19.45;;
45762;SDS011;37512;52.408;13.356;2022-08-14T00:21:26;24.65;;;19.73;;
45762;SDS011;37512;52.408;13.356;2022-08-14T00:25:31;24.52;;;19.17;;
45762;SDS011;37512;52.408;13.356;2022-08-14T00:29:42;21.45;;;18.67;;
45762;SDS011;37512;52.408;13.356;2022-08-14T00:33:44;27.15;;;20.10;;
45762;SDS011;37512;52.408;13.356;2022-08-14T00:37:52;24.30;;;18.40;;
45762;SDS011;37512;52.408;13.356;2022-08-14T00:41:55;26.27;;;18.88;;
45762;SDS011;37512;52.408;13.356;2022-08-14T00:46:00;23.65;;;18.77;;
45762;SDS011;37512;52.408;13.356;2022-08-14T00:50:23;24.33;;;19.27;;
45762;SDS011;37512;52.408;13.356;2022-08-14T00:54:26;28.33;;;20.10;;
45762;SDS011;37512;52.408;13.356;2022-08-14T00:58:27;21.15;;;17.45;;
45762;SDS011;37512;52.408;13.356;2022-08-14T01:02:33;19.48;;;17.38;;
45762;SDS011;37512;52.408;13.356;2022-08-14T01:06:37;21.83;;;17.80;;
45762;SDS011;37512;52.408;13.356;2022-08-14T01:10:40;19.80;;;16.52;;
45762;SDS011;37512;52.408;13.356;2022-08-14T01:14:53;16.77;;;15.00;;
45762;SDS011;37512;52.408;13.356;2022-08-14T01:18:58;17.73;;;15.52;;
45762;SDS011;37512;52.408;13.356;2022-08-14T01:23:20;17.35;;;14.77;;
45762;SDS011;37512;52.408;13.356;2022-08-14T01:27:22;16.80;;;14.52;;
45762;SDS011;37512;52.408;13.356;2022-08-14T01:31:26;17.92;;;14.82;;
45762;SDS011;37512;52.408;13.356;2022-08-14T01:35:30;16.40;;;14.70;;
45762;SDS011;37512;52.408;13.356;2022-08-14T01:39:48;19.80;;;14.88;;
45762;SDS011;37512;52.408;13.356;2022-08-14T01:43:55;15.85;;;14.25;;
45762;SDS011;37512;52.408;13.356;2022-08-14T01:48:01;16.98;;;13.38;;
45762;SDS011;37512;52.408;13.356;2022-08-14T01:52:03;15.10;;;13.45;;
45762;SDS011;37512;52.408;13.356;2022-08-14T01:56:14;19.10;;;14.02;;
45762;SDS011;37512;52.408;13.356;2022-08-14T02:00:20;17.10;;;15.30;;
45762;SDS011;37512;52.408;13.356;2022-08-14T02:04:31;17.17;;;14.75;;
45762;SDS011;37512;52.408;13.356;2022-08-14T02:08:55;21.10;;;15.02;;
45762;SDS011;37512;52.408;13.356;2022-08-14T02:12:56;16.80;;;15.05;;
45762;SDS011;37512;52.408;13.356;2022-08-14T02:17:00;20.33;;;16.23;;
45762;SDS011;37512;52.408;13.356;2022-08-14T02:21:02;23.02;;;16.38;;
45762;SDS011;37512;52.408;13.356;2022-08-14T02:25:05;22.27;;;16.45;;
45762;SDS011;37512;52.408;13.356;2022-08-14T02:29:08;18.75;;;15.32;;
45762;SDS011;37512;52.408;13.356;2022-08-14T02:33:11;19.80;;;17.00;;
45762;SDS011;37512;52.408;13.356;2022-08-14T02:37:14;22.10;;;16.45;;
45762;SDS011;37512;52.408;13.356;2022-08-14T02:41:16;16.33;;;14.60;;
45762;SDS011;37512;52.408;13.356;2022-08-14T02:45:19;20.45;;;16.35;;
45762;SDS011;37512;52.408;13.356;2022-08-14T02:49:23;18.95;;;16.17;;
45762;SDS011;37512;52.408;13.356;2022-08-14T02:53:35;18.27;;;16.23;;
45762;SDS011;37512;52.408;13.356;2022-08-14T02:57:42;18.30;;;15.70;;
45762;SDS011;37512;52.408;13.356;2022-08-14T03:01:44;20.48;;;14.98;;
45762;SDS011;37512;52.408;13.356;2022-08-14T03:05:55;19.40;;;15.77;;
45762;SDS011;37512;52.408;13.356;2022-08-14T03:09:56;20.55;;;15.13;;
45762;SDS011;37512;52.408;13.356;2022-08-14T03:14:17;17.65;;;14.77;;
45762;SDS011;37512;52.408;13.356;2022-08-14T03:18:21;16.40;;;14.70;;
45762;SDS011;37512;52.408;13.356;2022-08-14T03:22:32;19.17;;;15.82;;
45762;SDS011;37512;52.408;13.356;2022-08-14T03:26:34;16.25;;;14.27;;
45762;SDS011;37512;52.408;13.356;2022-08-14T03:30:39;17.42;;;14.43;;
45762;SDS011;37512;52.408;13.356;2022-08-14T03:34:44;16.77;;;14.88;;
45762;SDS011;37512;52.408;13.356;2022-08-14T03:38:55;16.83;;;15.05;;
45762;SDS011;37512;52.408;13.356;2022-08-14T03:43:18;18.25;;;14.75;;
45762;SDS011;37512;52.408;13.356;2022-08-14T03:47:19;18.42;;;15.50;;
45762;SDS011;37512;52.408;13.356;2022-08-14T03:51:21;17.75;;;14.45;;
45762;SDS011;37512;52.408;13.356;2022-08-14T03:55:27;16.30;;;14.60;;
45762;SDS011;37512;52.408;13.356;2022-08-14T03:59:31;16.58;;;14.88;;
45762;SDS011;37512;52.408;13.356;2022-08-14T04:03:33;18.05;;;16.15;;
45762;SDS011;37512;52.408;13.356;2022-08-14T04:07:37;17.05;;;14.88;;
45762;SDS011;37512;52.408;13.356;2022-08-14T04:11:49;24.33;;;20.17;;
45762;SDS011;37512;52.408;13.356;2022-08-14T04:15:51;23.15;;;15.73;;
45762;SDS011;37512;52.408;13.356;2022-08-14T04:20:03;20.25;;;14.43;;
45762;SDS011;37512;52.408;13.356;2022-08-14T04:24:06;16.55;;;14.85;;
45762;SDS011;37512;52.408;13.356;2022-08-14T04:28:10;16.58;;;14.55;;
45762;SDS011;37512;52.408;13.356;2022-08-14T04:32:32;17.83;;;14.82;;
45762;SDS011;37512;52.408;13.356;2022-08-14T04:36:54;19.90;;;14.00;;
45762;SDS011;37512;52.408;13.356;2022-08-14T04:41:25;20.92;;;15.00;;
45762;SDS011;37512;52.408;13.356;2022-08-14T04:45:46;21.42;;;15.10;;
45762;SDS011;37512;52.408;13.356;2022-08-14T04:49:52;17.60;;;15.70;;
45762;SDS011;37512;52.408;13.356;2022-08-14T04:53:57;22.08;;;16.35;;
45762;SDS011;37512;52.408;13.356;2022-08-14T04:58:02;18.40;;;16.33;;
45762;SDS011;37512;52.408;13.356;2022-08-14T05:02:06;17.00;;;15.20;;
45762;SDS011;37512;52.408;13.356;2022-08-14T05:06:09;15.80;;;14.10;;
45762;SDS011;37512;52.408;13.356;2022-08-14T05:10:31;16.48;;;14.50;;
45762;SDS011;37512;52.408;13.356;2022-08-14T05:14:33;16.75;;;14.43;;
45762;SDS011;37512;52.408;13.356;2022-08-14T05:18:53;17.55;;;15.50;;
45762;SDS011;37512;52.408;13.356;2022-08-14T05:23:16;17.02;;;14.50;;
45762;SDS011;37512;52.408;13.356;2022-08-14T05:27:19;22.75;;;16.05;;
45762;SDS011;37512;52.408;13.356;2022-08-14T05:31:23;16.13;;;14.52;;
45762;SDS011;37512;52.408;13.356;2022-08-14T05:35:39;21.60;;;14.63;;
45762;SDS011;37512;52.408;13.356;2022-08-14T05:39:42;18.83;;;15.27;;
45762;SDS011;37512;52.408;13.356;2022-08-14T05:43:46;17.05;;;14.55;;
45762;SDS011;37512;52.408;13.356;2022-08-14T05:47:51;15.20;;;13.25;;
45762;SDS011;37512;52.408;13.356;2022-08-14T05:51:52;15.77;;;11.52;;
45762;SDS011;37512;52.408;13.356;2022-08-14T05:55:54;12.15;;;10.85;;
45762;SDS011;37512;52.408;13.356;2022-08-14T05:59:56;11.25;;;10.05;;
45762;SDS011;37512;52.408;13.356;2022-08-14T06:04:00;13.52;;;10.18;;
45762;SDS011;37512;52.408;13.356;2022-08-14T06:08:05;11.32;;;10.23;;
45762;SDS011;37512;52.408;13.356;2022-08-14T06:12:34;13.30;;;10.90;;
45762;SDS011;37512;52.408;13.356;2022-08-14T06:16:56;11.77;;;10.55;;
45762;SDS011;37512;52.408;13.356;2022-08-14T06:20:57;11.68;;;9.40;;
45762;SDS011;37512;52.408;13.356;2022-08-14T06:24:59;13.18;;;9.75;;
45762;SDS011;37512;52.408;13.356;2022-08-14T06:29:01;12.80;;;10.25;;
45762;SDS011;37512;52.408;13.356;2022-08-14T06:33:03;10.27;;;9.10;;
45762;SDS011;37512;52.408;13.356;2022-08-14T06:37:07;10.85;;;8.85;;
45762;SDS011;37512;52.408;13.356;2022-08-14T06:41:09;13.02;;;10.23;;
45762;SDS011;37512;52.408;13.356;2022-08-14T06:45:11;11.25;;;9.68;;
45762;SDS011;37512;52.408;13.356;2022-08-14T06:49:15;12.50;;;9.15;;
45762;SDS011;37512;52.408;13.356;2022-08-14T06:53:16;11.43;;;9.38;;
45762;SDS011;37512;52.408;13.356;2022-08-14T06:57:19;11.60;;;9.00;;
45762;SDS011;37512;52.408;13.356;2022-08-14T07:01:21;10.40;;;9.05;;
45762;SDS011;37512;52.408;13.356;2022-08-14T07:05:41;15.07;;;9.73;;
45762;SDS011;37512;52.408;13.356;2022-08-14T07:09:58;11.73;;;8.52;;
45762;SDS011;37512;52.408;13.356;2022-08-14T07:14:01;9.50;;;8.50;;
45762;SDS011;37512;52.408;13.356;2022-08-14T07:18:05;10.75;;;8.77;;
45762;SDS011;37512;52.408;13.356;2022-08-14T07:22:09;10.40;;;8.98;;
45762;SDS011;37512;52.408;13.356;2022-08-14T07:26:20;10.57;;;8.25;;
45762;SDS011;37512;52.408;13.356;2022-08-14T07:30:24;12.88;;;8.82;;
45762;SDS011;37512;52.408;13.356;2022-08-14T07:34:35;10.00;;;8.77;;
45762;SDS011;37512;52.408;13.356;2022-08-14T07:38:41;10.40;;;8.60;;
45762;SDS011;37512;52.408;13.356;2022-08-14T07:42:52;8.95;;;8.05;;
45762;SDS011;37512;52.408;13.356;2022-08-14T07:46:54;13.35;;;9.27;;
45762;SDS011;37512;52.408;13.356;2022-08-14T07:50:55;10.07;;;8.98;;
45762;SDS011;37512;52.408;13.356;2022-08-14T07:55:04;9.88;;;8.88;;
45762;SDS011;37512;52.408;13.356;2022-08-14T07:59:06;9.32;;;8.32;;
45762;SDS011;37512;52.408;13.356;2022-08-14T08:03:09;9.00;;;8.00;;
45762;SDS011;37512;52.408;13.356;2022-08-14T08:07:12;9.35;;;8.32;;
45762;SDS011;37512;52.408;13.356;2022-08-14T08:11:15;11.60;;;8.20;;
45762;SDS011;37512;52.408;13.356;2022-08-14T08:15:20;12.00;;;9.00;;
45762;SDS011;37512;52.408;13.356;2022-08-14T08:19:23;9.98;;;8.00;;
45762;SDS011;37512;52.408;13.356;2022-08-14T08:23:26;8.88;;;7.80;;
45762;SDS011;37512;52.408;13.356;2022-08-14T08:27:40;9.35;;;7.07;;
45762;SDS011;37512;52.408;13.356;2022-08-14T08:31:48;9.52;;;7.18;;
45762;SDS011;37512;52.408;13.356;2022-08-14T08:35:53;10.80;;;7.38;;
45762;SDS011;37512;52.408;13.356;2022-08-14T08:39:59;8.27;;;6.95;;
45762;SDS011;37512;52.408;13.356;2022-08-14T08:44:06;10.40;;;6.70;;
45762;SDS011;37512;52.408;13.356;2022-08-14T08:48:28;7.65;;;6.85;;
45762;SDS011;37512;52.408;13.356;2022-08-14T08:52:45;7.38;;;5.97;;
45762;SDS011;37512;52.408;13.356;2022-08-14T08:56:54;7.38;;;6.28;;
45762;SDS011;37512;52.408;13.356;2022-08-14T09:00:57;8.10;;;6.35;;
45762;SDS011;37512;52.408;13.356;2022-08-14T09:05:01;6.53;;;5.57;;
45762;SDS011;37512;52.408;13.356;2022-08-14T09:09:15;6.50;;;5.28;;
45762;SDS011;37512;52.408;13.356;2022-08-14T09:13:33;7.65;;;6.38;;
45762;SDS011;37512;52.408;13.356;2022-08-14T09:17:41;7.68;;;5.25;;
45762;SDS011;37512;52.408;13.356;2022-08-14T09:21:45;7.50;;;5.82;;
45762;SDS011;37512;52.408;13.356;2022-08-14T09:25:49;6.10;;;5.50;;
45762;SDS011;37512;52.408;13.356;2022-08-14T09:30:02;9.75;;;6.63;;
45762;SDS011;37512;52.408;13.356;2022-08-14T09:43:40;13.18;;;6.10;;
45762;SDS011;37512;52.408;13.356;2022-08-14T09:47:50;10.82;;;5.53;;
45762;SDS011;37512;52.408;13.356;2022-08-14T09:52:00;6.00;;;5.15;;
45762;SDS011;37512;52.408;13.356;2022-08-14T09:56:24;6.75;;;5.25;;
45762;SDS011;37512;52.408;13.356;2022-08-14T10:00:39;7.87;;;5.30;;
45762;SDS011;37512;52.408;13.356;2022-08-14T10:04:44;10.52;;;5.60;;
45762;SDS011;37512;52.408;13.356;2022-08-14T10:08:52;9.32;;;4.82;;
45762;SDS011;37512;52.408;13.356;2022-08-14T10:12:58;5.68;;;5.07;;
45762;SDS011;37512;52.408;13.356;2022-08-14T10:17:02;9.15;;;4.25;;
45762;SDS011;37512;52.408;13.356;2022-08-14T10:21:08;7.72;;;4.20;;
45762;SDS011;37512;52.408;13.356;2022-08-14T10:25:16;7.32;;;4.38;;
45762;SDS011;37512;52.408;13.356;2022-08-14T10:29:28;5.32;;;4.20;;
45762;SDS011;37512;52.408;13.356;2022-08-14T10:33:36;8.10;;;3.90;;
45762;SDS011;37512;52.408;13.356;2022-08-14T10:37:38;3.70;;;3.17;;
45762;SDS011;37512;52.408;13.356;2022-08-14T10:41:45;4.77;;;3.20;;
45762;SDS011;37512;52.408;13.356;2022-08-14T10:45:57;6.63;;;4.22;;
45762;SDS011;37512;52.408;13.356;2022-08-14T10:50:28;8.18;;;3.17;;
45762;SDS011;37512;52.408;13.356;2022-08-14T10:54:43;4.38;;;3.05;;
45762;SDS011;37512;52.408;13.356;2022-08-14T10:58:47;5.72;;;3.10;;
45762;SDS011;37512;52.408;13.356;2022-08-14T11:02:56;3.85;;;3.08;;
45762;SDS011;37512;52.408;13.356;2022-08-14T11:07:00;4.10;;;3.40;;
45762;SDS011;37512;52.408;13.356;2022-08-14T11:11:06;6.13;;;3.20;;
45762;SDS011;37512;52.408;13.356;2022-08-14T11:15:08;4.38;;;3.80;;
45762;SDS011;37512;52.408;13.356;2022-08-14T11:19:10;6.05;;;3.13;;
45762;SDS011;37512;52.408;13.356;2022-08-14T11:23:13;6.38;;;3.47;;
45762;SDS011;37512;52.408;13.356;2022-08-14T11:27:15;5.38;;;3.38;;
45762;SDS011;37512;52.408;13.356;2022-08-14T11:31:20;4.10;;;3.08;;
45762;SDS011;37512;52.408;13.356;2022-08-14T11:35:25;7.10;;;3.15;;
45762;SDS011;37512;52.408;13.356;2022-08-14T11:39:47;3.38;;;3.08;;
45762;SDS011;37512;52.408;13.356;2022-08-14T11:43:51;4.18;;;3.05;;
45762;SDS011;37512;52.408;13.356;2022-08-14T11:52:34;5.35;;;3.58;;
45762;SDS011;37512;52.408;13.356;2022-08-14T11:56:40;3.42;;;3.13;;
45762;SDS011;37512;52.408;13.356;2022-08-14T12:00:49;7.32;;;3.58;;
45762;SDS011;37512;52.408;13.356;2022-08-14T12:05:02;2.97;;;2.70;;
45762;SDS011;37512;52.408;13.356;2022-08-14T12:09:09;4.30;;;3.10;;
45762;SDS011;37512;52.408;13.356;2022-08-14T12:13:16;3.67;;;3.03;;
45762;SDS011;37512;52.408;13.356;2022-08-14T12:17:20;4.80;;;3.20;;
45762;SDS011;37512;52.408;13.356;2022-08-14T12:21:26;8.68;;;4.07;;
45762;SDS011;37512;52.408;13.356;2022-08-14T12:25:33;3.50;;;3.20;;
45762;SDS011;37512;52.408;13.356;2022-08-14T12:29:35;3.53;;;3.10;;
45762;SDS011;37512;52.408;13.356;2022-08-14T12:33:40;3.50;;;3.17;;
45762;SDS011;37512;52.408;13.356;2022-08-14T12:37:53;3.40;;;3.10;;
45762;SDS011;37512;52.408;13.356;2022-08-14T12:41:55;7.60;;;3.45;;
45762;SDS011;37512;52.408;13.356;2022-08-14T12:46:01;5.00;;;3.17;;
45762;SDS011;37512;52.408;13.356;2022-08-14T12:50:04;4.80;;;3.75;;
45762;SDS011;37512;52.408;13.356;2022-08-14T12:54:17;3.75;;;3.40;;
45762;SDS011;37512;52.408;13.356;2022-08-14T12:58:29;4.60;;;3.38;;
45762;SDS011;37512;52.408;13.356;2022-08-14T13:02:52;7.65;;;3.65;;
45762;SDS011;37512;52.408;13.356;2022-08-14T13:07:00;5.40;;;3.60;;
45762;SDS011;37512;52.408;13.356;2022-08-14T13:11:12;6.25;;;4.00;;
45762;SDS011;37512;52.408;13.356;2022-08-14T13:15:16;3.60;;;3.30;;
45762;SDS011;37512;52.408;13.356;2022-08-14T13:19:19;3.33;;;3.03;;
45762;SDS011;37512;52.408;13.356;2022-08-14T13:23:28;5.28;;;3.63;;
45762;SDS011;37512;52.408;13.356;2022-08-14T13:27:36;3.72;;;2.97;;
45762;SDS011;37512;52.408;13.356;2022-08-14T13:31:42;4.53;;;3.60;;
45762;SDS011;37512;52.408;13.356;2022-08-14T13:35:48;6.57;;;3.60;;
45762;SDS011;37512;52.408;13.356;2022-08-14T13:39:51;3.25;;;2.95;;
45762;SDS011;37512;52.408;13.356;2022-08-14T13:43:58;8.65;;;2.92;;
45762;SDS011;37512;52.408;13.356;2022-08-14T13:48:01;3.28;;;2.55;;
45762;SDS011;37512;52.408;13.356;2022-08-14T13:52:03;2.60;;;2.40;;
45762;SDS011;37512;52.408;13.356;2022-08-14T13:56:26;3.38;;;2.50;;
45762;SDS011;37512;52.408;13.356;2022-08-14T14:00:37;2.60;;;2.33;;
45762;SDS011;37512;52.408;13.356;2022-08-14T14:04:55;4.75;;;2.17;;
45762;SDS011;37512;52.408;13.356;2022-08-14T14:09:02;2.53;;;2.33;;
45762;SDS011;37512;52.408;13.356;2022-08-14T14:13:03;4.15;;;2.33;;
45762;SDS011;37512;52.408;13.356;2022-08-14T14:17:06;5.50;;;2.80;;
45762;SDS011;37512;52.408;13.356;2022-08-14T14:21:11;4.20;;;2.80;;
45762;SDS011;37512;52.408;13.356;2022-08-14T14:25:15;2.80;;;2.45;;
45762;SDS011;37512;52.408;13.356;2022-08-14T14:29:22;2.95;;;2.47;;
45762;SDS011;37512;52.408;13.356;2022-08-14T14:33:28;5.18;;;3.05;;
45762;SDS011;37512;52.408;13.356;2022-08-14T14:37:49;6.40;;;2.90;;
45762;SDS011;37512;52.408;13.356;2022-08-14T14:41:53;3.33;;;2.55;;
45762;SDS011;37512;52.408;13.356;2022-08-14T14:45:56;2.92;;;2.60;;
45762;SDS011;37512;52.408;13.356;2022-08-14T14:49:59;2.40;;;2.05;;
45762;SDS011;37512;52.408;13.356;2022-08-14T14:54:03;3.33;;;2.17;;
45762;SDS011;37512;52.408;13.356;2022-08-14T14:58:08;2.75;;;2.33;;
45762;SDS011;37512;52.408;13.356;2022-08-14T15:06:38;4.43;;;2.42;;
45762;SDS011;37512;52.408;13.356;2022-08-14T15:10:48;2.42;;;2.05;;
45762;SDS011;37512;52.408;13.356;2022-08-14T15:14:53;3.35;;;2.10;;
45762;SDS011;37512;52.408;13.356;2022-08-14T15:19:08;2.38;;;2.13;;
45762;SDS011;37512;52.408;13.356;2022-08-14T15:23:13;2.33;;;2.13;;
45762;SDS011;37512;52.408;13.356;2022-08-14T15:27:16;3.08;;;2.50;;
45762;SDS011;37512;52.408;13.356;2022-08-14T15:31:26;2.40;;;2.17;;
45762;SDS011;37512;52.408;13.356;2022-08-14T15:35:30;3.45;;;2.15;;
45762;SDS011;37512;52.408;13.356;2022-08-14T15:39:34;2.42;;;1.95;;
45762;SDS011;37512;52.408;13.356;2022-08-14T15:47:45;4.50;;;2.15;;
45762;SDS011;37512;52.408;13.356;2022-08-14T15:51:52;3.35;;;2.50;;
45762;SDS011;37512;52.408;13.356;2022-08-14T15:55:58;2.20;;;2.00;;
45762;SDS011;37512;52.408;13.356;2022-08-14T15:59:59;2.88;;;2.60;;
45762;SDS011;37512;52.408;13.356;2022-08-14T16:04:39;3.30;;;2.67;;
45762;SDS011;37512;52.408;13.356;2022-08-14T16:08:42;3.78;;;2.35;;
45762;SDS011;37512;52.408;13.356;2022-08-14T16:12:44;6.40;;;2.35;;
45762;SDS011;37512;52.408;13.356;2022-08-14T16:16:48;3.88;;;2.80;;
45762;SDS011;37512;52.408;13.356;2022-08-14T16:21:03;3.38;;;2.60;;
45762;SDS011;37512;52.408;13.356;2022-08-14T16:25:17;3.95;;;2.60;;
45762;SDS011;37512;52.408;13.356;2022-08-14T16:29:37;3.05;;;2.40;;
45762;SDS011;37512;52.408;13.356;2022-08-14T16:33:42;5.90;;;2.53;;
45762;SDS011;37512;52.408;13.356;2022-08-14T16:38:00;3.05;;;2.40;;
45762;SDS011;37512;52.408;13.356;2022-08-14T16:42:20;2.97;;;2.65;;
45762;SDS011;37512;52.408;13.356;2022-08-14T16:46:43;4.80;;;2.40;;
45762;SDS011;37512;52.408;13.356;2022-08-14T16:50:47;4.13;;;2.70;;
45762;SDS011;37512;52.408;13.356;2022-08-14T16:54:50;5.18;;;2.90;;
45762;SDS011;37512;52.408;13.356;2022-08-14T16:59:03;6.15;;;2.83;;
45762;SDS011;37512;52.408;13.356;2022-08-14T17:03:09;2.85;;;2.38;;
45762;SDS011;37512;52.408;13.356;2022-08-14T17:07:12;5.28;;;3.83;;
45762;SDS011;37512;52.408;13.356;2022-08-14T17:11:15;6.35;;;3.67;;
45762;SDS011;37512;52.408;13.356;2022-08-14T17:15:18;5.63;;;3.63;;
45762;SDS011;37512;52.408;13.356;2022-08-14T17:19:19;3.92;;;2.75;;
45762;SDS011;37512;52.408;13.356;2022-08-14T17:23:22;5.70;;;3.05;;
45762;SDS011;37512;52.408;13.356;2022-08-14T17:27:30;5.07;;;2.88;;
45762;SDS011;37512;52.408;13.356;2022-08-14T17:31:33;5.85;;;3.30;;
45762;SDS011;37512;52.408;13.356;2022-08-14T17:36:17;3.95;;;3.35;;
45762;SDS011;37512;52.408;13.356;2022-08-14T17:40:21;80.97;;;72.40;;
45762;SDS011;37512;52.408;13.356;2022-08-14T17:44:30;7.65;;;4.03;;
45762;SDS011;37512;52.408;13.356;2022-08-14T17:48:46;6.05;;;4.22;;
45762;SDS011;37512;52.408;13.356;2022-08-14T17:53:07;6.32;;;4.72;;
45762;SDS011;37512;52.408;13.356;2022-08-14T17:57:11;9.25;;;5.60;;
45762;SDS011;37512;52.408;13.356;2022-08-14T18:01:15;8.77;;;4.63;;
45762;SDS011;37512;52.408;13.356;2022-08-14T18:05:25;9.30;;;6.50;;
45762;SDS011;37512;52.408;13.356;2022-08-14T18:09:50;5.32;;;4.50;;
45762;SDS011;37512;52.408;13.356;2022-08-14T18:13:59;5.20;;;4.40;;
45762;SDS011;37512;52.408;13.356;2022-08-14T18:18:02;5.45;;;4.15;;
45762;SDS011;37512;52.408;13.356;2022-08-14T18:22:09;6.30;;;4.70;;
45762;SDS011;37512;52.408;13.356;2022-08-14T18:26:31;6.35;;;5.72;;
45762;SDS011;37512;52.408;13.356;2022-08-14T18:30:38;7.90;;;4.47;;
45762;SDS011;37512;52.408;13.356;2022-08-14T18:35:06;4.03;;;3.63;;
45762;SDS011;37512;52.408;13.356;2022-08-14T18:39:20;6.82;;;3.95;;
45762;SDS011;37512;52.408;13.356;2022-08-14T18:43:41;6.03;;;3.97;;
45762;SDS011;37512;52.408;13.356;2022-08-14T18:47:48;5.22;;;3.97;;
45762;SDS011;37512;52.408;13.356;2022-08-14T18:52:16;4.95;;;3.97;;
45762;SDS011;37512;52.408;13.356;2022-08-14T18:56:40;6.80;;;4.00;;
45762;SDS011;37512;52.408;13.356;2022-08-14T19:01:10;9.20;;;4.68;;
45762;SDS011;37512;52.408;13.356;2022-08-14T19:14:01;7.55;;;4.38;;
45762;SDS011;37512;52.408;13.356;2022-08-14T19:18:21;5.75;;;4.28;;
45762;SDS011;37512;52.408;13.356;2022-08-14T19:22:28;4.80;;;4.15;;
45762;SDS011;37512;52.408;13.356;2022-08-14T19:26:32;7.00;;;4.18;;
45762;SDS011;37512;52.408;13.356;2022-08-14T19:35:43;7.22;;;4.38;;
45762;SDS011;37512;52.408;13.356;2022-08-14T19:39:56;6.45;;;4.07;;
45762;SDS011;37512;52.408;13.356;2022-08-14T19:44:33;6.88;;;4.38;;
45762;SDS011;37512;52.408;13.356;2022-08-14T19:48:32;8.98;;;4.93;;
45762;SDS011;37512;52.408;13.356;2022-08-14T19:52:34;5.75;;;4.90;;
45762;SDS011;37512;52.408;13.356;2022-08-14T19:56:41;9.50;;;4.93;;
45762;SDS011;37512;52.408;13.356;2022-08-14T20:00:54;9.50;;;6.15;;
45762;SDS011;37512;52.408;13.356;2022-08-14T20:05:00;10.18;;;5.65;;
45762;SDS011;37512;52.408;13.356;2022-08-14T20:09:05;6.03;;;4.82;;
45762;SDS011;37512;52.408;13.356;2022-08-14T20:13:28;7.90;;;5.10;;
45762;SDS011;37512;52.408;13.356;2022-08-14T20:17:33;5.28;;;4.75;;
45762;SDS011;37512;52.408;13.356;2022-08-14T20:26:22;10.73;;;6.30;;
45762;SDS011;37512;52.408;13.356;2022-08-14T20:30:32;6.43;;;5.10;;
45762;SDS011;37512;52.408;13.356;2022-08-14T20:34:36;9.15;;;5.60;;
45762;SDS011;37512;52.408;13.356;2022-08-14T20:38:54;8.93;;;5.53;;
45762;SDS011;37512;52.408;13.356;2022-08-14T20:43:00;6.57;;;5.53;;
45762;SDS011;37512;52.408;13.356;2022-08-14T20:47:25;7.03;;;5.30;;
45762;SDS011;37512;52.408;13.356;2022-08-14T20:51:50;11.75;;;5.70;;
45762;SDS011;37512;52.408;13.356;2022-08-14T20:56:04;7.97;;;6.05;;
45762;SDS011;37512;52.408;13.356;2022-08-14T21:00:31;8.20;;;5.68;;
45762;SDS011;37512;52.408;13.356;2022-08-14T21:05:26;8.00;;;6.30;;
45762;SDS011;37512;52.408;13.356;2022-08-14T21:09:44;7.93;;;5.97;;
45762;SDS011;37512;52.408;13.356;2022-08-14T21:14:23;9.02;;;6.15;;
45762;SDS011;37512;52.408;13.356;2022-08-14T21:18:30;9.13;;;6.25;;
45762;SDS011;37512;52.408;13.356;2022-08-14T21:22:34;12.77;;;5.65;;
45762;SDS011;37512;52.408;13.356;2022-08-14T21:26:36;8.00;;;5.95;;
45762;SDS011;37512;52.408;13.356;2022-08-14T21:30:58;10.02;;;6.30;;
45762;SDS011;37512;52.408;13.356;2022-08-14T21:35:03;8.13;;;5.90;;
45762;SDS011;37512;52.408;13.356;2022-08-14T21:39:08;8.13;;;6.00;;
45762;SDS011;37512;52.408;13.356;2022-08-14T21:43:19;9.00;;;6.25;;
45762;SDS011;37512;52.408;13.356;2022-08-14T21:47:24;9.45;;;5.93;;
45762;SDS011;37512;52.408;13.356;2022-08-14T21:51:25;7.38;;;5.60;;
45762;SDS011;37512;52.408;13.356;2022-08-14T21:55:47;8.85;;;6.68;;
45762;SDS011;37512;52.408;13.356;2022-08-14T21:59:51;10.73;;;6.45;;
45762;SDS011;37512;52.408;13.356;2022-08-14T22:03:54;9.63;;;6.65;;
45762;SDS011;37512;52.408;13.356;2022-08-14T22:08:02;9.48;;;7.10;;
45762;SDS011;37512;52.408;13.356;2022-08-14T22:12:07;14.20;;;7.60;;
45762;SDS011;37512;52.408;13.356;2022-08-14T22:16:10;9.48;;;6.50;;
45762;SDS011;37512;52.408;13.356;2022-08-14T22:20:32;9.57;;;7.00;;
45762;SDS011;37512;52.408;13.356;2022-08-14T22:24:34;9.13;;;6.60;;
45762;SDS011;37512;52.408;13.356;2022-08-14T22:28:53;9.30;;;6.38;;
45762;SDS011;37512;52.408;13.356;2022-08-14T22:32:56;9.73;;;6.25;;
45762;SDS011;37512;52.408;13.356;2022-08-14T22:37:00;10.50;;;6.50;;
45762;SDS011;37512;52.408;13.356;2022-08-14T22:41:03;7.53;;;6.25;;
45762;SDS011;37512;52.408;13.356;2022-08-14T22:45:25;10.15;;;6.28;;
45762;SDS011;37512;52.408;13.356;2022-08-14T22:49:37;9.15;;;7.20;;
45762;SDS011;37512;52.408;13.356;2022-08-14T22:53:59;10.02;;;6.75;;
45762;SDS011;37512;52.408;13.356;2022-08-14T22:58:04;10.95;;;6.97;;
45762;SDS011;37512;52.408;13.356;2022-08-14T23:02:11;8.25;;;6.75;;
45762;SDS011;37512;52.408;13.356;2022-08-14T23:06:30;9.18;;;7.00;;
45762;SDS011;37512;52.408;13.356;2022-08-14T23:10:52;10.27;;;7.70;;
45762;SDS011;37512;52.408;13.356;2022-08-14T23:14:54;9.60;;;7.43;;
45762;SDS011;37512;52.408;13.356;2022-08-14T23:18:56;12.45;;;7.45;;
45762;SDS011;37512;52.408;13.356;2022-08-14T23:22:58;11.27;;;7.93;;
45762;SDS011;37512;52.408;13.356;2022-08-14T23:26:59;11.27;;;7.93;;
45762;SDS011;37512;52.408;13.356;2022-08-14T23:31:01;11.23;;;8.13;;
45762;SDS011;37512;52.408;13.356;2022-08-14T23:35:06;11.02;;;7.80;;
45762;SDS011;37512;52.408;13.356;2022-08-14T23:39:12;9.52;;;7.60;;
45762;SDS011;37512;52.408;13.356;2022-08-14T23:43:19;10.10;;;7.82;;
45762;SDS011;37512;52.408;13.356;2022-08-14T23:47:21;16.40;;;8.18;;
45762;SDS011;37512;52.408;13.356;2022-08-14T23:51:27;11.50;;;8.45;;
45762;SDS011;37512;52.408;13.356;2022-08-14T23:55:36;11.00;;;8.10;;
45762;SDS011;37512;52.408;13.356;2022-08-14T23:59:42;10.50;;;7.72;;
